Terminal Aerodrome Forecast
Issued by NWS Austin/San Antonio, TX

Home | Current Version | Previous Version | Text Only | Print | Product List | Glossary On
Versions: 1 2 3 4 5 6 7 8 9 10 11 12 13 14 15 16 17 18 19 20 21 22 23 24 25 26 27 28
000
FTUS44 KEWX 290401 AAA
TAFSAT
TAF AMD
KSAT 290401Z 2904/3006 15008KT 6SM BR BKN017
     FM290700 13014KT 5SM BR BKN007
     FM291600 16012KT 5SM BR VCSH BKN012 OVC035
     FM291900 16012G22KT P6SM VCTS BKN035CB=

USA.gov is the U.S. government's official web portal to all federal, state and local government web resources and services.